Elora, Canada
Current Conditions -  °F | °C
As of 8:00 PM on Wednesday 17 Dec 2014 (Local Time) from CYKF Reporting Station
Light Snow Light Snow  
Wind Chill: 18°   Ceiling: 1800
Heat Index: 30°   Visibility: 5mi
Dew Point: 27°   Wind: 17mph
Humidity: 86%   Direction: 270°W
Pressure: 29.96"   Gusts: 25mph
Location:  43.68°N, 80.43°W
Report Text: CYKF 180100Z AUTO 27015G22KT 5SM -SN SCT013 BKN018 OVC024 M01/M03 A2996 RMK SLP158
Loading
Personal Weather Stations






























Interactive Weather Map New forecast layout! Learn more

10-Day Weather Forecast

Advertisements
Track Severe Weather on mobile